National Weather Service United States Department of Commerce

Strong Winds and Critical Fire Weather Conditions Likely over California

Critical fire weather conditions will continue over portions of California today. Very strong winds with gusts over 60 mph combined with dry humidity values will create an environment conducive to extreme fire danger and explosive fire growth over southern California. Winds are expected to diminish later today and tonight. Read More >

                                       ZTL Airspace Summary / KATL TAF                    For ATC Planning Purposes Only
ZTL Airspace Summary:
A low pressure system will produce numerous showers over ZTL with isolated embedded thunderstorms over S AL. Expect VFR/MVFR/IFR conditions in and west of the rain band and VFR conditions east of the rain. Surface winds will be mostly north to southeast at 3-12kts in AL/GA/TN and east to southwest at 3-10kts in SC/NC/VA. Flight Hazards outside convection: LGT-MOD Rime/Mixed icing 110-FL260, diminishing over NW ZTL by 23z. LGT-MOD Turbulence below FL180 and LLWS.

Updated:12/17/2017 12:40 PM
 

Hartsfield-Jackson Atlanta International Airport Terminal Aerodrome Forecast:
 
FTUS80 KATL 171736
KATL 171734Z 1718/1824 08006KT P6SM -RA SCT040 BKN080 OVC100
      TEMPO 1719/1723 2SM RA BR BKN025
     FM172300 06005KT 6SM BR VCSH BKN025
     FM180100 08004KT 4SM BR BKN015
     FM180400 08004KT 2SM -DZ BR BKN006
     FM181200 03002KT 1SM -DZ BR OVC004
     FM181600 28003KT P6SM BKN008 BKN080

 

ATL METAR:  
SPUS70 KATL 171928
SPECI KATL 171924Z 14006KT 4SM -RA BR BKN022 BKN033 OVC090 07/04 A3017
     RMK AO2 P0007 T00670044

Go to KATL TAF TDA
Go to KATL TAF TDA

 
ATL TRACON HAZARDS
ATL TRACON: SFC-14000
AVG CIG BASE WHERE REPORTED BLW 10000FT: 4257.1428571429
LOWEST REPORTED CIG: 1300
LOWEST REPORTED FLIGHT CAT: IFR
METARS:
KATL 171924Z 14006KT 4SM -RA BR BKN022 BKN033 OVC090 07/04 A3017 RMK AO2 P0007 T00670044
K6A2 171915Z AUTO 00000KT 5SM OVC018 10/06 A3020 RMK AO2
KLZU 171856Z 12004KT 10SM -RA FEW031 BKN070 BKN100 10/03 A3018 RMK AO2 RAB1759 SLP238 P0000 T01000028
KFFC 171853Z AUTO 00000KT 4SM -RA BR FEW018 BKN025 OVC110 07/06 A3019 RMK AO2 SLP229 P0009 T00720061
KRYY 171848Z 13004KT 10SM -RA SCT070 BKN095 OVC110 09/02 A3018 RMK AO2 RAB36 SLP943 P0000 T00890017
KCVC 171935Z AUTO 00000KT 7SM SCT026 SCT050 OVC100 08/06 A3019 RMK AO2
KFTY 171929Z 08003KT 5SM -RA BR BKN024 BKN075 OVC095 07/05 A3018 RMK AO2 P0007 T00720050
KMGE 171856Z 13005KT 7SM -RA BKN060 BKN100 OVC200 09/02 A3017 RMK AO2A SLP224 P0000 T00870018 $
KVPC 171915Z AUTO 00000KT 10SM BKN029 OVC055 08/04 A3020 RMK AO2 RAE10 P0000 T00780044
KD73 171915Z AUTO 00000KT 7SM -RA BKN110 08/04 A3019 RMK AO2 P0001 T00810043
KHMP 171915Z AUTO 10004KT 5SM -RA BKN020 OVC032 07/06 A3019 RMK AO2 T00740058
KCCO 171935Z AUTO 00000KT 10SM OVC016 07/05 A3017 RMK AO2 T00730049
KPUJ 171935Z AUTO 00000KT 7SM -RA BKN013 BKN020 OVC049 08/08 A3019 RMK AO2
KPDK 171927Z 00000KT 2 1/2SM RA BR FEW065 BKN090 OVC110 07/04 A3018 RMK AO2 P0007 T00670044
KCTJ 171915Z AUTO 00000KT 10SM RA OVC014 05/04 A3021 RMK AO2 T00520040

ATL TRACON HAZARD

Forecast Surface Map Loop / Collaborative Convective Forecast Product / Vertical Wind Profile
Weather Map

 

AIRMETs & SIGMETS/ Southeast Radar loop / Satellite Image (click on image to enlarge)
Weather Map Southeast Radar Loop

satellite